sensor_id;sensor_type;location;lat;lon;timestamp;P1;durP1;ratioP1;P2;durP2;ratioP2
57029;SDS011;42920;45.306;20.448;2022-09-21T00:01:07;6.13;;;2.92;;
57029;SDS011;42920;45.306;20.448;2022-09-21T00:03:38;5.97;;;3.38;;
57029;SDS011;42920;45.306;20.448;2022-09-21T00:06:09;6.47;;;3.97;;
57029;SDS011;42920;45.306;20.448;2022-09-21T00:08:36;6.13;;;3.58;;
57029;SDS011;42920;45.306;20.448;2022-09-21T00:11:03;5.85;;;3.10;;
57029;SDS011;42920;45.306;20.448;2022-09-21T00:13:29;5.53;;;3.17;;
57029;SDS011;42920;45.306;20.448;2022-09-21T00:15:57;5.78;;;3.40;;
57029;SDS011;42920;45.306;20.448;2022-09-21T00:18:23;6.47;;;3.72;;
57029;SDS011;42920;45.306;20.448;2022-09-21T00:20:49;7.65;;;3.30;;
57029;SDS011;42920;45.306;20.448;2022-09-21T00:23:17;5.65;;;3.15;;
57029;SDS011;42920;45.306;20.448;2022-09-21T00:25:43;6.32;;;3.42;;
57029;SDS011;42920;45.306;20.448;2022-09-21T00:28:09;4.60;;;3.35;;
57029;SDS011;42920;45.306;20.448;2022-09-21T00:30:36;6.10;;;3.65;;
57029;SDS011;42920;45.306;20.448;2022-09-21T00:33:02;4.85;;;3.15;;
57029;SDS011;42920;45.306;20.448;2022-09-21T00:35:28;5.53;;;3.65;;
57029;SDS011;42920;45.306;20.448;2022-09-21T00:37:53;6.22;;;3.15;;
57029;SDS011;42920;45.306;20.448;2022-09-21T00:40:19;7.63;;;3.13;;
57029;SDS011;42920;45.306;20.448;2022-09-21T00:42:45;5.35;;;3.25;;
57029;SDS011;42920;45.306;20.448;2022-09-21T00:45:11;5.25;;;2.90;;
57029;SDS011;42920;45.306;20.448;2022-09-21T00:47:45;6.47;;;3.30;;
57029;SDS011;42920;45.306;20.448;2022-09-21T00:50:15;9.10;;;3.50;;
57029;SDS011;42920;45.306;20.448;2022-09-21T00:52:45;6.78;;;3.38;;
57029;SDS011;42920;45.306;20.448;2022-09-21T00:57:41;5.82;;;3.55;;
57029;SDS011;42920;45.306;20.448;2022-09-21T01:00:10;5.60;;;3.50;;
57029;SDS011;42920;45.306;20.448;2022-09-21T01:02:36;5.43;;;3.35;;
57029;SDS011;42920;45.306;20.448;2022-09-21T01:05:03;6.15;;;3.30;;
57029;SDS011;42920;45.306;20.448;2022-09-21T01:07:32;7.13;;;4.13;;
57029;SDS011;42920;45.306;20.448;2022-09-21T01:10:03;5.40;;;3.00;;
57029;SDS011;42920;45.306;20.448;2022-09-21T01:20:49;4.28;;;3.05;;
57029;SDS011;42920;45.306;20.448;2022-09-21T01:29:22;5.55;;;3.42;;
57029;SDS011;42920;45.306;20.448;2022-09-21T01:31:54;5.60;;;2.88;;
57029;SDS011;42920;45.306;20.448;2022-09-21T01:37:31;5.00;;;3.08;;
57029;SDS011;42920;45.306;20.448;2022-09-21T01:40:07;5.88;;;2.88;;
57029;SDS011;42920;45.306;20.448;2022-09-21T01:42:40;6.03;;;3.60;;
57029;SDS011;42920;45.306;20.448;2022-09-21T01:45:09;4.88;;;3.33;;
57029;SDS011;42920;45.306;20.448;2022-09-21T01:47:40;4.80;;;3.30;;
57029;SDS011;42920;45.306;20.448;2022-09-21T01:50:11;5.43;;;3.33;;
57029;SDS011;42920;45.306;20.448;2022-09-21T01:55:21;6.38;;;3.05;;
57029;SDS011;42920;45.306;20.448;2022-09-21T01:57:58;6.25;;;3.70;;
57029;SDS011;42920;45.306;20.448;2022-09-21T02:00:43;6.18;;;3.15;;
57029;SDS011;42920;45.306;20.448;2022-09-21T02:03:18;5.70;;;2.90;;
57029;SDS011;42920;45.306;20.448;2022-09-21T02:05:53;4.78;;;3.50;;
57029;SDS011;42920;45.306;20.448;2022-09-21T02:08:21;7.97;;;3.10;;
57029;SDS011;42920;45.306;20.448;2022-09-21T02:10:50;4.90;;;3.03;;
57029;SDS011;42920;45.306;20.448;2022-09-21T02:13:18;4.25;;;2.67;;
57029;SDS011;42920;45.306;20.448;2022-09-21T02:21:35;7.75;;;2.85;;
57029;SDS011;42920;45.306;20.448;2022-09-21T02:24:31;5.32;;;3.20;;
57029;SDS011;42920;45.306;20.448;2022-09-21T02:29:51;8.07;;;3.05;;
57029;SDS011;42920;45.306;20.448;2022-09-21T02:35:47;6.65;;;3.55;;
57029;SDS011;42920;45.306;20.448;2022-09-21T02:41:34;6.03;;;3.50;;
57029;SDS011;42920;45.306;20.448;2022-09-21T02:48:02;7.38;;;3.13;;
57029;SDS011;42920;45.306;20.448;2022-09-21T02:50:16;7.47;;;3.58;;
57029;SDS011;42920;45.306;20.448;2022-09-21T02:52:48;6.82;;;3.50;;
57029;SDS011;42920;45.306;20.448;2022-09-21T02:55:15;6.45;;;4.05;;
57029;SDS011;42920;45.306;20.448;2022-09-21T02:57:42;6.13;;;4.03;;
57029;SDS011;42920;45.306;20.448;2022-09-21T03:00:11;6.28;;;3.60;;
57029;SDS011;42920;45.306;20.448;2022-09-21T03:02:40;5.47;;;3.85;;
57029;SDS011;42920;45.306;20.448;2022-09-21T03:05:07;8.65;;;4.10;;
57029;SDS011;42920;45.306;20.448;2022-09-21T03:07:34;7.40;;;3.92;;
57029;SDS011;42920;45.306;20.448;2022-09-21T03:10:00;7.93;;;3.33;;
57029;SDS011;42920;45.306;20.448;2022-09-21T03:12:26;6.60;;;3.10;;
57029;SDS011;42920;45.306;20.448;2022-09-21T03:14:52;4.93;;;3.53;;
57029;SDS011;42920;45.306;20.448;2022-09-21T03:17:18;5.88;;;3.67;;
57029;SDS011;42920;45.306;20.448;2022-09-21T03:19:44;5.30;;;3.60;;
57029;SDS011;42920;45.306;20.448;2022-09-21T03:22:09;8.10;;;3.75;;
57029;SDS011;42920;45.306;20.448;2022-09-21T03:24:35;5.03;;;3.17;;
57029;SDS011;42920;45.306;20.448;2022-09-21T03:27:10;6.32;;;3.35;;
57029;SDS011;42920;45.306;20.448;2022-09-21T03:29:40;6.30;;;3.78;;
57029;SDS011;42920;45.306;20.448;2022-09-21T03:32:06;6.40;;;3.53;;
57029;SDS011;42920;45.306;20.448;2022-09-21T03:34:32;6.80;;;3.63;;
57029;SDS011;42920;45.306;20.448;2022-09-21T03:37:01;5.18;;;3.58;;
57029;SDS011;42920;45.306;20.448;2022-09-21T03:39:29;4.65;;;3.17;;
57029;SDS011;42920;45.306;20.448;2022-09-21T03:41:54;6.50;;;3.67;;
57029;SDS011;42920;45.306;20.448;2022-09-21T03:44:21;5.50;;;3.65;;
57029;SDS011;42920;45.306;20.448;2022-09-21T03:46:50;8.82;;;3.72;;
57029;SDS011;42920;45.306;20.448;2022-09-21T03:49:17;7.70;;;4.10;;
57029;SDS011;42920;45.306;20.448;2022-09-21T03:51:43;5.07;;;3.58;;
57029;SDS011;42920;45.306;20.448;2022-09-21T03:54:09;6.50;;;3.58;;
57029;SDS011;42920;45.306;20.448;2022-09-21T03:56:35;5.70;;;3.97;;
57029;SDS011;42920;45.306;20.448;2022-09-21T03:59:01;5.38;;;3.03;;
57029;SDS011;42920;45.306;20.448;2022-09-21T04:01:27;5.47;;;4.22;;
57029;SDS011;42920;45.306;20.448;2022-09-21T04:03:53;6.25;;;4.00;;
57029;SDS011;42920;45.306;20.448;2022-09-21T04:06:19;5.47;;;3.53;;
57029;SDS011;42920;45.306;20.448;2022-09-21T04:08:44;5.35;;;3.55;;
57029;SDS011;42920;45.306;20.448;2022-09-21T04:13:36;7.45;;;3.72;;
57029;SDS011;42920;45.306;20.448;2022-09-21T04:16:03;6.63;;;3.90;;
57029;SDS011;42920;45.306;20.448;2022-09-21T04:18:29;6.63;;;3.63;;
57029;SDS011;42920;45.306;20.448;2022-09-21T04:20:55;7.43;;;4.30;;
57029;SDS011;42920;45.306;20.448;2022-09-21T04:23:21;5.50;;;3.25;;
57029;SDS011;42920;45.306;20.448;2022-09-21T04:25:47;6.35;;;4.05;;
57029;SDS011;42920;45.306;20.448;2022-09-21T04:28:15;6.25;;;3.60;;
57029;SDS011;42920;45.306;20.448;2022-09-21T04:30:41;5.88;;;3.80;;
57029;SDS011;42920;45.306;20.448;2022-09-21T04:33:07;6.55;;;3.78;;
57029;SDS011;42920;45.306;20.448;2022-09-21T04:37:58;5.28;;;3.83;;
57029;SDS011;42920;45.306;20.448;2022-09-21T04:40:24;6.43;;;3.55;;
57029;SDS011;42920;45.306;20.448;2022-09-21T04:42:53;4.97;;;3.15;;
57029;SDS011;42920;45.306;20.448;2022-09-21T04:45:21;6.78;;;3.72;;
57029;SDS011;42920;45.306;20.448;2022-09-21T04:47:47;11.77;;;3.53;;
57029;SDS011;42920;45.306;20.448;2022-09-21T04:50:13;7.07;;;3.50;;
57029;SDS011;42920;45.306;20.448;2022-09-21T04:52:39;5.72;;;3.70;;
57029;SDS011;42920;45.306;20.448;2022-09-21T04:55:06;7.18;;;3.97;;
57029;SDS011;42920;45.306;20.448;2022-09-21T04:57:32;5.80;;;3.45;;
57029;SDS011;42920;45.306;20.448;2022-09-21T04:59:59;8.02;;;4.30;;
57029;SDS011;42920;45.306;20.448;2022-09-21T05:02:25;8.20;;;3.92;;
57029;SDS011;42920;45.306;20.448;2022-09-21T05:04:51;5.85;;;3.75;;
57029;SDS011;42920;45.306;20.448;2022-09-21T05:07:17;6.22;;;4.07;;
57029;SDS011;42920;45.306;20.448;2022-09-21T05:09:43;7.25;;;4.05;;
57029;SDS011;42920;45.306;20.448;2022-09-21T05:12:26;6.70;;;3.58;;
57029;SDS011;42920;45.306;20.448;2022-09-21T05:14:52;7.75;;;4.28;;
57029;SDS011;42920;45.306;20.448;2022-09-21T05:17:20;7.13;;;3.83;;
57029;SDS011;42920;45.306;20.448;2022-09-21T05:19:49;6.90;;;4.30;;
57029;SDS011;42920;45.306;20.448;2022-09-21T05:22:16;5.78;;;3.83;;
57029;SDS011;42920;45.306;20.448;2022-09-21T05:24:42;5.95;;;3.70;;
57029;SDS011;42920;45.306;20.448;2022-09-21T05:27:08;6.15;;;3.97;;
57029;SDS011;42920;45.306;20.448;2022-09-21T05:29:33;7.20;;;3.53;;
57029;SDS011;42920;45.306;20.448;2022-09-21T05:32:02;5.85;;;3.70;;
57029;SDS011;42920;45.306;20.448;2022-09-21T05:40:10;8.32;;;3.97;;
57029;SDS011;42920;45.306;20.448;2022-09-21T05:42:37;8.63;;;4.00;;
57029;SDS011;42920;45.306;20.448;2022-09-21T05:45:03;6.85;;;4.13;;
57029;SDS011;42920;45.306;20.448;2022-09-21T05:47:44;8.65;;;4.53;;
57029;SDS011;42920;45.306;20.448;2022-09-21T05:58:35;8.05;;;4.93;;
57029;SDS011;42920;45.306;20.448;2022-09-21T06:03:43;9.05;;;5.60;;
57029;SDS011;42920;45.306;20.448;2022-09-21T06:06:11;7.38;;;4.65;;
57029;SDS011;42920;45.306;20.448;2022-09-21T06:08:37;7.63;;;5.03;;
57029;SDS011;42920;45.306;20.448;2022-09-21T06:11:02;8.38;;;5.00;;
57029;SDS011;42920;45.306;20.448;2022-09-21T06:13:28;9.15;;;5.95;;
57029;SDS011;42920;45.306;20.448;2022-09-21T06:15:54;9.68;;;5.93;;
57029;SDS011;42920;45.306;20.448;2022-09-21T06:18:20;7.00;;;4.88;;
57029;SDS011;42920;45.306;20.448;2022-09-21T06:20:46;10.23;;;5.20;;
57029;SDS011;42920;45.306;20.448;2022-09-21T06:23:12;9.20;;;5.53;;
57029;SDS011;42920;45.306;20.448;2022-09-21T06:25:38;11.60;;;6.50;;
57029;SDS011;42920;45.306;20.448;2022-09-21T06:28:05;8.98;;;6.15;;
57029;SDS011;42920;45.306;20.448;2022-09-21T06:30:32;9.80;;;5.40;;
57029;SDS011;42920;45.306;20.448;2022-09-21T06:32:59;9.43;;;6.22;;
57029;SDS011;42920;45.306;20.448;2022-09-21T06:35:26;10.30;;;6.70;;
57029;SDS011;42920;45.306;20.448;2022-09-21T06:38:00;12.73;;;6.03;;
57029;SDS011;42920;45.306;20.448;2022-09-21T06:40:27;9.05;;;6.40;;
57029;SDS011;42920;45.306;20.448;2022-09-21T06:42:58;12.05;;;7.30;;
57029;SDS011;42920;45.306;20.448;2022-09-21T06:45:25;9.15;;;6.43;;
57029;SDS011;42920;45.306;20.448;2022-09-21T06:47:52;9.57;;;6.50;;
57029;SDS011;42920;45.306;20.448;2022-09-21T06:50:18;11.93;;;7.40;;
57029;SDS011;42920;45.306;20.448;2022-09-21T06:52:44;13.10;;;8.57;;
57029;SDS011;42920;45.306;20.448;2022-09-21T06:55:10;10.55;;;7.35;;
57029;SDS011;42920;45.306;20.448;2022-09-21T06:57:35;12.88;;;9.63;;
57029;SDS011;42920;45.306;20.448;2022-09-21T07:00:05;9.82;;;6.93;;
57029;SDS011;42920;45.306;20.448;2022-09-21T07:02:35;10.82;;;7.05;;
57029;SDS011;42920;45.306;20.448;2022-09-21T07:05:01;10.68;;;7.00;;
57029;SDS011;42920;45.306;20.448;2022-09-21T07:07:28;12.43;;;7.63;;
57029;SDS011;42920;45.306;20.448;2022-09-21T07:09:57;9.02;;;6.35;;
57029;SDS011;42920;45.306;20.448;2022-09-21T07:12:23;12.88;;;7.70;;
57029;SDS011;42920;45.306;20.448;2022-09-21T07:14:50;16.35;;;8.10;;
57029;SDS011;42920;45.306;20.448;2022-09-21T07:17:16;12.57;;;7.80;;
57029;SDS011;42920;45.306;20.448;2022-09-21T07:19:42;11.27;;;7.05;;
57029;SDS011;42920;45.306;20.448;2022-09-21T07:22:07;11.00;;;6.65;;
57029;SDS011;42920;45.306;20.448;2022-09-21T07:24:33;11.18;;;7.45;;
57029;SDS011;42920;45.306;20.448;2022-09-21T07:26:59;11.75;;;7.15;;
57029;SDS011;42920;45.306;20.448;2022-09-21T07:29:24;9.70;;;6.43;;
57029;SDS011;42920;45.306;20.448;2022-09-21T07:31:50;12.73;;;7.63;;
57029;SDS011;42920;45.306;20.448;2022-09-21T07:34:16;10.52;;;6.60;;
57029;SDS011;42920;45.306;20.448;2022-09-21T07:36:42;10.90;;;7.07;;
57029;SDS011;42920;45.306;20.448;2022-09-21T07:39:08;7.85;;;6.07;;
57029;SDS011;42920;45.306;20.448;2022-09-21T07:41:34;8.77;;;6.72;;
57029;SDS011;42920;45.306;20.448;2022-09-21T07:44:01;9.18;;;6.72;;
57029;SDS011;42920;45.306;20.448;2022-09-21T07:46:27;11.20;;;6.60;;
57029;SDS011;42920;45.306;20.448;2022-09-21T07:48:54;9.57;;;7.28;;
57029;SDS011;42920;45.306;20.448;2022-09-21T07:51:20;11.45;;;8.40;;
57029;SDS011;42920;45.306;20.448;2022-09-21T07:53:47;12.13;;;8.27;;
57029;SDS011;42920;45.306;20.448;2022-09-21T07:56:19;11.40;;;8.27;;
57029;SDS011;42920;45.306;20.448;2022-09-21T07:58:44;15.45;;;8.60;;
57029;SDS011;42920;45.306;20.448;2022-09-21T08:01:29;15.85;;;11.00;;
57029;SDS011;42920;45.306;20.448;2022-09-21T08:03:55;13.18;;;9.00;;
57029;SDS011;42920;45.306;20.448;2022-09-21T08:06:22;13.15;;;9.02;;
57029;SDS011;42920;45.306;20.448;2022-09-21T08:08:49;13.23;;;9.02;;
57029;SDS011;42920;45.306;20.448;2022-09-21T08:11:16;12.95;;;9.02;;
57029;SDS011;42920;45.306;20.448;2022-09-21T08:13:43;15.38;;;9.45;;
57029;SDS011;42920;45.306;20.448;2022-09-21T08:16:09;11.75;;;8.73;;
57029;SDS011;42920;45.306;20.448;2022-09-21T08:18:36;12.20;;;8.75;;
57029;SDS011;42920;45.306;20.448;2022-09-21T08:21:03;13.30;;;9.10;;
57029;SDS011;42920;45.306;20.448;2022-09-21T08:23:30;12.32;;;8.45;;
57029;SDS011;42920;45.306;20.448;2022-09-21T08:28:29;16.08;;;10.77;;
57029;SDS011;42920;45.306;20.448;2022-09-21T08:31:02;44.55;;;24.20;;
57029;SDS011;42920;45.306;20.448;2022-09-21T08:33:29;31.67;;;20.05;;
57029;SDS011;42920;45.306;20.448;2022-09-21T08:35:56;37.05;;;20.45;;
57029;SDS011;42920;45.306;20.448;2022-09-21T08:38:23;20.77;;;11.90;;
57029;SDS011;42920;45.306;20.448;2022-09-21T08:40:49;54.58;;;28.33;;
57029;SDS011;42920;45.306;20.448;2022-09-21T08:43:20;38.58;;;18.98;;
57029;SDS011;42920;45.306;20.448;2022-09-21T08:45:57;22.42;;;13.55;;
57029;SDS011;42920;45.306;20.448;2022-09-21T08:48:26;12.63;;;8.85;;
57029;SDS011;42920;45.306;20.448;2022-09-21T08:51:01;34.67;;;31.20;;
57029;SDS011;42920;45.306;20.448;2022-09-21T08:53:31;10.15;;;7.47;;
57029;SDS011;42920;45.306;20.448;2022-09-21T08:56:00;17.92;;;8.20;;
57029;SDS011;42920;45.306;20.448;2022-09-21T08:58:28;12.80;;;8.05;;
57029;SDS011;42920;45.306;20.448;2022-09-21T09:09:24;14.23;;;9.80;;
57029;SDS011;42920;45.306;20.448;2022-09-21T09:25:24;20.50;;;12.60;;
57029;SDS011;42920;45.306;20.448;2022-09-21T09:27:56;18.20;;;11.50;;
57029;SDS011;42920;45.306;20.448;2022-09-21T09:30:29;19.35;;;10.70;;
57029;SDS011;42920;45.306;20.448;2022-09-21T09:35:56;13.43;;;9.50;;
57029;SDS011;42920;45.306;20.448;2022-09-21T09:41:03;18.92;;;12.07;;
57029;SDS011;42920;45.306;20.448;2022-09-21T09:49:09;15.00;;;10.20;;
57029;SDS011;42920;45.306;20.448;2022-09-21T09:54:14;15.60;;;10.20;;
57029;SDS011;42920;45.306;20.448;2022-09-21T09:56:41;24.00;;;18.10;;
57029;SDS011;42920;45.306;20.448;2022-09-21T10:02:19;16.10;;;11.50;;
57029;SDS011;42920;45.306;20.448;2022-09-21T10:04:57;16.67;;;14.68;;
57029;SDS011;42920;45.306;20.448;2022-09-21T10:07:40;15.48;;;12.15;;
57029;SDS011;42920;45.306;20.448;2022-09-21T10:13:01;14.68;;;10.50;;
57029;SDS011;42920;45.306;20.448;2022-09-21T10:15:53;13.65;;;9.45;;
57029;SDS011;42920;45.306;20.448;2022-09-21T10:18:35;17.33;;;13.20;;
57029;SDS011;42920;45.306;20.448;2022-09-21T10:21:16;20.48;;;12.77;;
57029;SDS011;42920;45.306;20.448;2022-09-21T10:23:45;23.52;;;14.07;;
57029;SDS011;42920;45.306;20.448;2022-09-21T10:26:14;24.38;;;15.98;;
57029;SDS011;42920;45.306;20.448;2022-09-21T10:28:57;18.98;;;13.15;;
57029;SDS011;42920;45.306;20.448;2022-09-21T10:31:26;17.27;;;12.10;;
57029;SDS011;42920;45.306;20.448;2022-09-21T10:34:14;17.00;;;12.15;;
57029;SDS011;42920;45.306;20.448;2022-09-21T10:36:40;13.70;;;9.60;;
57029;SDS011;42920;45.306;20.448;2022-09-21T10:39:31;16.90;;;10.27;;
57029;SDS011;42920;45.306;20.448;2022-09-21T10:44:35;12.73;;;9.73;;
57029;SDS011;42920;45.306;20.448;2022-09-21T10:47:16;13.10;;;9.57;;
57029;SDS011;42920;45.306;20.448;2022-09-21T10:49:49;14.43;;;8.88;;
57029;SDS011;42920;45.306;20.448;2022-09-21T10:52:21;17.80;;;11.90;;
57029;SDS011;42920;45.306;20.448;2022-09-21T10:54:50;23.10;;;15.40;;
57029;SDS011;42920;45.306;20.448;2022-09-21T10:57:19;20.05;;;13.10;;
57029;SDS011;42920;45.306;20.448;2022-09-21T10:59:48;15.85;;;10.90;;
57029;SDS011;42920;45.306;20.448;2022-09-21T11:02:24;15.85;;;10.68;;
57029;SDS011;42920;45.306;20.448;2022-09-21T11:05:10;17.30;;;11.20;;
57029;SDS011;42920;45.306;20.448;2022-09-21T11:10:29;14.55;;;8.93;;
57029;SDS011;42920;45.306;20.448;2022-09-21T11:16:19;18.10;;;9.73;;
57029;SDS011;42920;45.306;20.448;2022-09-21T11:21:34;19.05;;;10.60;;
57029;SDS011;42920;45.306;20.448;2022-09-21T11:29:25;15.45;;;11.23;;
57029;SDS011;42920;45.306;20.448;2022-09-21T11:32:32;13.57;;;9.07;;
57029;SDS011;42920;45.306;20.448;2022-09-21T11:35:17;12.70;;;9.95;;
57029;SDS011;42920;45.306;20.448;2022-09-21T11:40:36;14.65;;;9.40;;
57029;SDS011;42920;45.306;20.448;2022-09-21T11:49:02;16.13;;;9.60;;
57029;SDS011;42920;45.306;20.448;2022-09-21T12:05:18;13.77;;;8.63;;
57029;SDS011;42920;45.306;20.448;2022-09-21T12:08:05;12.80;;;8.40;;
57029;SDS011;42920;45.306;20.448;2022-09-21T12:13:37;24.55;;;16.48;;
57029;SDS011;42920;45.306;20.448;2022-09-21T12:17:00;12.95;;;10.27;;
57029;SDS011;42920;45.306;20.448;2022-09-21T12:25:14;15.50;;;9.80;;
57029;SDS011;42920;45.306;20.448;2022-09-21T12:27:55;14.23;;;8.35;;
57029;SDS011;42920;45.306;20.448;2022-09-21T12:30:57;8.63;;;5.53;;
57029;SDS011;42920;45.306;20.448;2022-09-21T12:33:40;11.07;;;6.45;;
57029;SDS011;42920;45.306;20.448;2022-09-21T12:36:19;7.70;;;4.97;;
57029;SDS011;42920;45.306;20.448;2022-09-21T12:41:32;8.15;;;5.55;;
57029;SDS011;42920;45.306;20.448;2022-09-21T12:44:25;7.90;;;4.15;;
57029;SDS011;42920;45.306;20.448;2022-09-21T12:47:02;8.05;;;4.25;;
57029;SDS011;42920;45.306;20.448;2022-09-21T12:49:42;10.50;;;5.38;;
57029;SDS011;42920;45.306;20.448;2022-09-21T12:52:18;10.05;;;5.43;;
57029;SDS011;42920;45.306;20.448;2022-09-21T12:55:49;11.65;;;6.63;;
57029;SDS011;42920;45.306;20.448;2022-09-21T12:57:55;8.75;;;5.45;;
57029;SDS011;42920;45.306;20.448;2022-09-21T13:00:27;7.93;;;4.63;;
57029;SDS011;42920;45.306;20.448;2022-09-21T13:05:31;57.60;;;28.38;;
57029;SDS011;42920;45.306;20.448;2022-09-21T13:10:45;44.00;;;22.13;;
57029;SDS011;42920;45.306;20.448;2022-09-21T13:15:57;32.38;;;15.73;;
57029;SDS011;42920;45.306;20.448;2022-09-21T13:18:28;9.77;;;5.32;;
57029;SDS011;42920;45.306;20.448;2022-09-21T13:20:58;4.28;;;2.92;;
57029;SDS011;42920;45.306;20.448;2022-09-21T13:24:21;7.07;;;2.67;;
57029;SDS011;42920;45.306;20.448;2022-09-21T13:26:35;3.70;;;2.23;;
57029;SDS011;42920;45.306;20.448;2022-09-21T13:47:41;22.75;;;13.63;;
57029;SDS011;42920;45.306;20.448;2022-09-21T13:50:31;16.27;;;10.73;;
57029;SDS011;42920;45.306;20.448;2022-09-21T13:52:57;11.65;;;7.82;;
57029;SDS011;42920;45.306;20.448;2022-09-21T13:55:30;15.48;;;6.13;;
57029;SDS011;42920;45.306;20.448;2022-09-21T14:03:31;11.52;;;5.10;;
57029;SDS011;42920;45.306;20.448;2022-09-21T14:06:22;6.75;;;4.38;;
57029;SDS011;42920;45.306;20.448;2022-09-21T14:08:53;5.10;;;3.38;;
57029;SDS011;42920;45.306;20.448;2022-09-21T14:11:37;8.20;;;3.92;;
57029;SDS011;42920;45.306;20.448;2022-09-21T14:14:22;4.88;;;3.08;;
57029;SDS011;42920;45.306;20.448;2022-09-21T14:16:55;4.55;;;2.47;;
57029;SDS011;42920;45.306;20.448;2022-09-21T14:24:38;5.28;;;3.22;;
57029;SDS011;42920;45.306;20.448;2022-09-21T14:32:52;3.17;;;2.28;;
57029;SDS011;42920;45.306;20.448;2022-09-21T14:35:38;2.63;;;1.90;;
57029;SDS011;42920;45.306;20.448;2022-09-21T14:38:18;4.25;;;2.50;;
57029;SDS011;42920;45.306;20.448;2022-09-21T14:40:59;3.50;;;2.20;;
57029;SDS011;42920;45.306;20.448;2022-09-21T14:43:30;4.15;;;2.33;;
57029;SDS011;42920;45.306;20.448;2022-09-21T14:48:54;3.97;;;2.00;;
57029;SDS011;42920;45.306;20.448;2022-09-21T15:02:47;5.25;;;1.38;;
57029;SDS011;42920;45.306;20.448;2022-09-21T15:05:30;3.03;;;1.60;;
57029;SDS011;42920;45.306;20.448;2022-09-21T15:11:14;6.55;;;2.38;;
57029;SDS011;42920;45.306;20.448;2022-09-21T15:16:43;9.55;;;2.80;;
57029;SDS011;42920;45.306;20.448;2022-09-21T15:21:43;26.20;;;14.55;;
57029;SDS011;42920;45.306;20.448;2022-09-21T15:26:55;11.50;;;7.15;;
57029;SDS011;42920;45.306;20.448;2022-09-21T15:29:41;15.10;;;8.95;;
57029;SDS011;42920;45.306;20.448;2022-09-21T15:35:04;11.25;;;8.70;;
57029;SDS011;42920;45.306;20.448;2022-09-21T15:37:54;11.60;;;7.07;;
57029;SDS011;42920;45.306;20.448;2022-09-21T15:40:34;8.98;;;5.82;;
57029;SDS011;42920;45.306;20.448;2022-09-21T15:48:41;19.20;;;10.50;;
57029;SDS011;42920;45.306;20.448;2022-09-21T15:53:47;34.45;;;20.60;;
57029;SDS011;42920;45.306;20.448;2022-09-21T15:56:20;24.65;;;14.52;;
57029;SDS011;42920;45.306;20.448;2022-09-21T15:58:49;16.52;;;9.85;;
57029;SDS011;42920;45.306;20.448;2022-09-21T16:01:18;15.82;;;8.13;;
57029;SDS011;42920;45.306;20.448;2022-09-21T16:03:47;8.23;;;5.10;;
57029;SDS011;42920;45.306;20.448;2022-09-21T16:06:26;9.45;;;5.20;;
57029;SDS011;42920;45.306;20.448;2022-09-21T16:08:59;8.55;;;5.10;;
57029;SDS011;42920;45.306;20.448;2022-09-21T16:11:47;8.88;;;6.05;;
57029;SDS011;42920;45.306;20.448;2022-09-21T16:14:14;12.32;;;6.57;;
57029;SDS011;42920;45.306;20.448;2022-09-21T16:22:38;4.95;;;2.75;;
57029;SDS011;42920;45.306;20.448;2022-09-21T16:25:51;8.98;;;2.95;;
57029;SDS011;42920;45.306;20.448;2022-09-21T16:27:55;6.15;;;3.55;;
57029;SDS011;42920;45.306;20.448;2022-09-21T16:33:41;8.38;;;5.70;;
57029;SDS011;42920;45.306;20.448;2022-09-21T16:36:50;15.82;;;8.15;;
57029;SDS011;42920;45.306;20.448;2022-09-21T16:38:53;14.20;;;10.20;;
57029;SDS011;42920;45.306;20.448;2022-09-21T16:41:23;13.18;;;9.85;;
57029;SDS011;42920;45.306;20.448;2022-09-21T16:43:57;36.35;;;18.77;;
57029;SDS011;42920;45.306;20.448;2022-09-21T16:46:24;19.38;;;10.70;;
57029;SDS011;42920;45.306;20.448;2022-09-21T16:48:51;33.03;;;18.80;;
57029;SDS011;42920;45.306;20.448;2022-09-21T16:51:19;34.30;;;18.63;;
57029;SDS011;42920;45.306;20.448;2022-09-21T16:53:51;28.77;;;16.45;;
57029;SDS011;42920;45.306;20.448;2022-09-21T16:56:18;22.50;;;12.60;;
57029;SDS011;42920;45.306;20.448;2022-09-21T16:58:44;23.30;;;11.93;;
57029;SDS011;42920;45.306;20.448;2022-09-21T17:01:10;39.25;;;17.65;;
57029;SDS011;42920;45.306;20.448;2022-09-21T17:03:40;74.68;;;36.42;;
57029;SDS011;42920;45.306;20.448;2022-09-21T17:06:12;142.77;;;65.95;;
57029;SDS011;42920;45.306;20.448;2022-09-21T17:08:44;156.63;;;66.22;;
57029;SDS011;42920;45.306;20.448;2022-09-21T17:11:17;91.82;;;44.85;;
57029;SDS011;42920;45.306;20.448;2022-09-21T17:13:47;37.92;;;18.80;;
57029;SDS011;42920;45.306;20.448;2022-09-21T17:16:14;110.78;;;48.28;;
57029;SDS011;42920;45.306;20.448;2022-09-21T17:18:45;45.53;;;26.67;;
57029;SDS011;42920;45.306;20.448;2022-09-21T17:21:12;19.10;;;16.67;;
57029;SDS011;42920;45.306;20.448;2022-09-21T17:23:39;10.95;;;9.60;;
57029;SDS011;42920;45.306;20.448;2022-09-21T17:26:10;8.65;;;5.93;;
57029;SDS011;42920;45.306;20.448;2022-09-21T17:31:11;11.60;;;7.22;;
57029;SDS011;42920;45.306;20.448;2022-09-21T17:33:39;9.25;;;6.75;;
57029;SDS011;42920;45.306;20.448;2022-09-21T17:36:08;10.25;;;8.63;;
57029;SDS011;42920;45.306;20.448;2022-09-21T17:38:37;12.05;;;10.50;;
57029;SDS011;42920;45.306;20.448;2022-09-21T17:41:05;14.43;;;11.07;;
57029;SDS011;42920;45.306;20.448;2022-09-21T17:48:51;28.70;;;21.85;;
57029;SDS011;42920;45.306;20.448;2022-09-21T17:51:17;24.95;;;21.33;;
57029;SDS011;42920;45.306;20.448;2022-09-21T17:54:03;24.73;;;19.50;;
57029;SDS011;42920;45.306;20.448;2022-09-21T17:59:15;22.05;;;16.70;;
57029;SDS011;42920;45.306;20.448;2022-09-21T18:01:46;16.13;;;13.32;;
57029;SDS011;42920;45.306;20.448;2022-09-21T18:04:12;11.75;;;10.00;;
57029;SDS011;42920;45.306;20.448;2022-09-21T18:06:38;9.77;;;7.63;;
57029;SDS011;42920;45.306;20.448;2022-09-21T18:09:04;7.65;;;6.07;;
57029;SDS011;42920;45.306;20.448;2022-09-21T18:22:08;7.75;;;5.53;;
57029;SDS011;42920;45.306;20.448;2022-09-21T18:24:37;24.05;;;14.18;;
57029;SDS011;42920;45.306;20.448;2022-09-21T18:27:04;10.10;;;6.78;;
57029;SDS011;42920;45.306;20.448;2022-09-21T18:29:35;14.57;;;4.82;;
57029;SDS011;42920;45.306;20.448;2022-09-21T18:45:54;6.25;;;3.50;;
57029;SDS011;42920;45.306;20.448;2022-09-21T18:54:03;5.88;;;3.63;;
57029;SDS011;42920;45.306;20.448;2022-09-21T18:56:32;7.93;;;3.95;;
57029;SDS011;42920;45.306;20.448;2022-09-21T18:59:00;6.57;;;3.90;;
57029;SDS011;42920;45.306;20.448;2022-09-21T19:01:27;6.80;;;4.38;;
57029;SDS011;42920;45.306;20.448;2022-09-21T19:03:57;8.02;;;5.13;;
57029;SDS011;42920;45.306;20.448;2022-09-21T19:09:12;9.63;;;5.38;;
57029;SDS011;42920;45.306;20.448;2022-09-21T19:11:54;11.30;;;4.95;;
57029;SDS011;42920;45.306;20.448;2022-09-21T19:18:25;11.65;;;5.05;;
57029;SDS011;42920;45.306;20.448;2022-09-21T19:20:57;7.97;;;5.20;;
57029;SDS011;42920;45.306;20.448;2022-09-21T19:26:34;8.02;;;4.50;;
57029;SDS011;42920;45.306;20.448;2022-09-21T19:34:09;9.87;;;5.53;;
57029;SDS011;42920;45.306;20.448;2022-09-21T19:36:41;9.10;;;6.38;;
57029;SDS011;42920;45.306;20.448;2022-09-21T19:39:08;17.02;;;6.30;;
57029;SDS011;42920;45.306;20.448;2022-09-21T19:52:14;15.27;;;7.80;;
57029;SDS011;42920;45.306;20.448;2022-09-21T19:54:42;11.30;;;7.10;;
57029;SDS011;42920;45.306;20.448;2022-09-21T19:57:27;10.85;;;6.47;;
57029;SDS011;42920;45.306;20.448;2022-09-21T20:00:17;11.43;;;7.20;;